Strona główna
METAR-TAF:

METAR-TAF

Lotnisko :

College Park, Maryland, Stany Zjednoczone

Szerokość geograficzna: 38-58-50N, Długość geograficzna: 076-55-20W, wysokość: 15 m

Aktualna obserwacja pogody

Raport powstał 5 minut temu, godzina 22:16 UTC
Cisza
Temperatura 6°C
Wilgotność 52%
Ciśnienie 1028 hPa
Widzialność: 16.1 km
Zachmurzenie całkowite na wysokości 4700 ft

METAR: KCGS 082216Z AUTO 00000KT 10SM OVC047 06/M03 A3037 RMK AO1 T00551027

czas: 17:21 (22:21 UTC)


TAF: brakujący

Obserwacja i prognoza pogody dla ponad 4000 lotnisk (raport METAR i TAF).

Dostępne stacje oznaczono żółtymi i czerwonymi punktami na mapie.

Najedź kursorem aby zobaczyć nazwę stacji.

Kliknij aby zobaczyć obserwacje i prognozy pogody.

Aby zmienić mapę: kliknij na zielony przycisk z czarnym krzyżykiem, aby powiększyć; na zielony przycisk z myślnikiem, aby pomniejszyć; na zielone strzałki, aby przejść do map sąsiednich.


METAR-TAF: